createdAt,value
2022-08-01T00:02:37.489Z,14.88
2022-08-01T00:07:42.407Z,14.00
2022-08-01T00:12:51.406Z,14.80
2022-08-01T00:17:56.719Z,17.95
2022-08-01T00:22:58.442Z,23.85
2022-08-01T00:28:00.189Z,17.63
2022-08-01T00:33:05.810Z,17.67
2022-08-01T00:38:10.029Z,14.13
2022-08-01T00:43:11.794Z,14.43
2022-08-01T00:48:15.804Z,13.10
2022-08-01T00:53:18.977Z,13.52
2022-08-01T00:58:24.169Z,12.20
2022-08-01T01:09:19.637Z,12.70
2022-08-01T01:14:33.842Z,14.65
2022-08-01T01:19:41.019Z,10.57
2022-08-01T01:25:20.541Z,10.75
2022-08-01T01:30:23.786Z,8.05
2022-08-01T01:35:28.271Z,6.70
2022-08-01T01:40:34.150Z,7.60
2022-08-01T01:45:36.877Z,6.28
2022-08-01T01:50:38.692Z,5.45
2022-08-01T01:55:49.338Z,5.50
2022-08-01T02:00:58.826Z,4.70
2022-08-01T02:06:09.842Z,5.60
2022-08-01T02:11:20.704Z,5.40
2022-08-01T02:16:25.927Z,5.85
2022-08-01T02:21:38.836Z,5.40
2022-08-01T02:26:43.275Z,3.65
2022-08-01T02:31:55.678Z,4.05
2022-08-01T02:36:58.390Z,3.88
2022-08-01T02:42:05.323Z,3.88
2022-08-01T02:47:13.840Z,3.45
2022-08-01T02:52:21.011Z,3.03
2022-08-01T02:57:25.595Z,2.90
2022-08-01T03:02:36.030Z,2.97
2022-08-01T03:07:40.988Z,3.17
2022-08-01T03:12:49.447Z,4.10
2022-08-01T03:17:52.583Z,3.72
2022-08-01T03:22:57.201Z,4.18
2022-08-01T03:28:03.061Z,5.50
2022-08-01T03:33:04.856Z,4.90
2022-08-01T03:38:16.263Z,5.30
2022-08-01T03:43:39.296Z,5.00
2022-08-01T03:48:49.867Z,4.65
2022-08-01T03:53:52.655Z,4.18
2022-08-01T03:58:56.691Z,5.07
2022-08-01T04:04:00.765Z,4.45
2022-08-01T04:09:13.305Z,3.75
2022-08-01T04:14:15.962Z,4.18
2022-08-01T04:19:20.004Z,3.60
2022-08-01T04:24:26.060Z,3.28
2022-08-01T04:29:33.456Z,3.78
2022-08-01T04:34:35.926Z,4.28
2022-08-01T04:39:51.115Z,4.85
2022-08-01T04:44:53.282Z,4.13
2022-08-01T04:49:57.639Z,4.35
2022-08-01T04:55:01.864Z,3.78
2022-08-01T05:00:09.417Z,4.82
2022-08-01T05:05:13.619Z,4.03
2022-08-01T05:10:15.487Z,4.53
2022-08-01T05:15:20.549Z,5.38
2022-08-01T05:20:27.335Z,4.32
2022-08-01T05:25:56.368Z,4.22
2022-08-01T05:30:56.526Z,4.25
2022-08-01T05:35:58.232Z,4.20
2022-08-01T05:41:00.319Z,3.58
2022-08-01T05:46:04.260Z,4.15
2022-08-01T05:51:06.113Z,4.65
2022-08-01T05:56:10.097Z,4.53
2022-08-01T06:01:15.229Z,4.25
2022-08-01T06:06:17.139Z,3.47
2022-08-01T06:11:21.207Z,5.05
2022-08-01T06:16:24.269Z,4.15
2022-08-01T06:21:26.350Z,3.80
2022-08-01T06:26:30.665Z,3.63
2022-08-01T06:31:33.971Z,3.35
2022-08-01T06:36:40.238Z,4.20
2022-08-01T06:41:47.932Z,3.40
2022-08-01T06:46:50.313Z,3.40
2022-08-01T06:51:55.328Z,3.30
2022-08-01T06:56:59.333Z,3.17
2022-08-01T07:02:03.738Z,3.63
2022-08-01T07:07:06.228Z,3.15
2022-08-01T07:12:09.086Z,2.97
2022-08-01T07:17:13.065Z,3.15
2022-08-01T07:22:23.444Z,3.63
2022-08-01T07:27:29.420Z,3.50
2022-08-01T07:32:35.212Z,2.45
2022-08-01T07:37:48.606Z,2.67
2022-08-01T07:42:51.557Z,2.90
2022-08-01T07:47:54.569Z,2.80
2022-08-01T07:53:01.111Z,2.83
2022-08-01T07:58:05.073Z,2.45
2022-08-01T08:03:07.622Z,2.58
2022-08-01T08:08:12.920Z,2.33
2022-08-01T08:13:15.299Z,2.83
2022-08-01T08:18:17.676Z,2.80
2022-08-01T08:23:42.008Z,3.47
2022-08-01T08:28:48.034Z,2.35
2022-08-01T08:33:55.318Z,2.60
2022-08-01T08:38:57.818Z,2.67
2022-08-01T08:44:06.410Z,2.60
2022-08-01T08:49:36.191Z,2.30
2022-08-01T08:54:42.769Z,2.53
2022-08-01T08:59:46.056Z,2.65
2022-08-01T09:04:51.191Z,2.22
2022-08-01T09:10:01.558Z,2.30
2022-08-01T09:15:10.526Z,1.40
2022-08-01T09:20:27.299Z,2.05
2022-08-01T09:25:46.151Z,1.90
2022-08-01T09:30:54.168Z,2.13
2022-08-01T09:35:58.795Z,2.22
2022-08-01T09:41:02.662Z,2.65
2022-08-01T09:46:15.240Z,2.17
2022-08-01T09:51:57.892Z,2.05
2022-08-01T09:57:09.925Z,2.33
2022-08-01T10:02:37.897Z,2.10
2022-08-01T10:08:02.761Z,2.47
2022-08-01T10:13:10.540Z,2.10
2022-08-01T10:18:16.147Z,1.73
2022-08-01T10:23:23.805Z,2.13
2022-08-01T10:28:54.135Z,2.00
2022-08-01T10:33:58.202Z,1.85
2022-08-01T10:39:05.252Z,2.20
2022-08-01T10:44:08.959Z,1.70
2022-08-01T10:49:16.972Z,2.10
2022-08-01T10:54:18.723Z,2.22
2022-08-01T10:59:51.161Z,1.90
2022-08-01T11:05:09.563Z,1.58
2022-08-01T11:10:24.273Z,2.45
2022-08-01T11:15:29.401Z,2.25
2022-08-01T11:20:42.099Z,1.67
2022-08-01T11:26:03.973Z,1.88
2022-08-01T11:31:11.712Z,1.77
2022-08-01T11:36:36.910Z,1.83
2022-08-01T11:41:47.537Z,1.90
2022-08-01T11:47:10.928Z,1.92
2022-08-01T11:52:25.093Z,1.90
2022-08-01T11:57:39.291Z,2.10
2022-08-01T12:02:45.605Z,1.92
2022-08-01T12:07:56.080Z,2.13
2022-08-01T12:13:04.195Z,1.40
2022-08-01T12:18:09.315Z,1.42
2022-08-01T12:23:17.455Z,1.98
2022-08-01T12:28:25.550Z,1.50
2022-08-01T12:33:27.978Z,1.48
2022-08-01T12:38:31.084Z,1.88
2022-08-01T12:43:33.035Z,1.48
2022-08-01T12:48:39.960Z,1.92
2022-08-01T12:53:47.206Z,2.13
2022-08-01T12:58:52.660Z,1.50
2022-08-01T13:04:05.246Z,1.90
2022-08-01T13:09:11.494Z,1.70
2022-08-01T13:14:30.736Z,1.10
2022-08-01T13:19:45.699Z,1.80
2022-08-01T13:24:49.480Z,1.80
2022-08-01T13:29:57.824Z,1.48
2022-08-01T13:35:07.491Z,1.50
2022-08-01T13:40:12.913Z,1.75
2022-08-01T13:45:15.205Z,1.83
2022-08-01T13:50:17.066Z,2.03
2022-08-01T13:55:21.085Z,1.80
2022-08-01T14:00:27.318Z,2.08
2022-08-01T14:05:31.302Z,2.78
2022-08-01T14:10:34.041Z,2.03
2022-08-01T14:15:39.881Z,1.88
2022-08-01T14:20:42.807Z,1.80
2022-08-01T14:26:05.570Z,1.90
2022-08-01T14:31:10.421Z,1.88
2022-08-01T14:36:30.155Z,2.00
2022-08-01T14:41:35.491Z,1.67
2022-08-01T14:46:57.190Z,1.58
2022-08-01T14:52:02.124Z,1.38
2022-08-01T14:57:07.084Z,1.60
2022-08-01T15:02:12.263Z,1.58
2022-08-01T15:07:19.583Z,1.70
2022-08-01T15:12:23.597Z,1.75
2022-08-01T15:17:30.328Z,1.85
2022-08-01T15:22:36.816Z,1.60
2022-08-01T15:27:41.206Z,1.40
2022-08-01T15:32:47.832Z,1.67
2022-08-01T15:37:55.266Z,1.85
2022-08-01T15:43:01.337Z,1.30
2022-08-01T15:48:05.935Z,1.25
2022-08-01T15:53:10.805Z,1.80
2022-08-01T15:58:12.821Z,1.27
2022-08-01T16:03:14.591Z,1.83
2022-08-01T16:08:21.221Z,1.25
2022-08-01T16:13:25.552Z,1.52
2022-08-01T16:18:27.235Z,1.42
2022-08-01T16:23:34.301Z,1.50
2022-08-01T16:28:38.381Z,1.08
2022-08-01T16:33:50.790Z,1.35
2022-08-01T16:38:57.177Z,1.63
2022-08-01T16:43:59.338Z,1.13
2022-08-01T16:49:01.425Z,1.50
2022-08-01T16:54:24.846Z,1.30
2022-08-01T16:59:31.917Z,1.17
2022-08-01T17:04:38.454Z,1.40
2022-08-01T17:09:43.790Z,1.58
2022-08-01T17:14:46.874Z,1.50
2022-08-01T17:19:49.806Z,1.90
2022-08-01T17:24:52.287Z,1.90
2022-08-01T17:30:00.732Z,1.40
2022-08-01T17:35:03.006Z,1.42
2022-08-01T17:40:37.474Z,1.30
2022-08-01T17:45:47.623Z,1.17
2022-08-01T17:50:52.162Z,1.30
2022-08-01T17:56:01.561Z,1.63
2022-08-01T18:01:05.839Z,1.55
2022-08-01T18:06:07.860Z,1.45
2022-08-01T18:11:10.017Z,1.40
2022-08-01T18:16:17.375Z,1.50
2022-08-01T18:21:25.847Z,1.65
2022-08-01T18:26:30.023Z,1.77
2022-08-01T18:31:31.759Z,1.45
2022-08-01T18:36:34.404Z,1.40
2022-08-01T18:41:38.974Z,1.67
2022-08-01T18:46:40.817Z,1.40
2022-08-01T18:51:44.990Z,1.67
2022-08-01T18:56:46.948Z,1.33
2022-08-01T19:01:51.110Z,1.70
2022-08-01T19:07:09.079Z,1.80
2022-08-01T19:12:11.101Z,1.80
2022-08-01T19:17:14.688Z,1.60
2022-08-01T19:22:18.742Z,1.60
2022-08-01T19:27:26.476Z,1.75
2022-08-01T19:32:32.944Z,1.50
2022-08-01T19:37:45.728Z,1.40
2022-08-01T19:42:50.002Z,1.45
2022-08-01T19:47:58.157Z,1.38
2022-08-01T19:53:05.252Z,1.83
2022-08-01T19:58:26.978Z,1.95
2022-08-01T20:03:33.222Z,1.77
2022-08-01T20:08:37.914Z,1.60
2022-08-01T20:13:42.291Z,2.05
2022-08-01T20:18:46.355Z,1.60
2022-08-01T20:23:50.602Z,1.88
2022-08-01T20:28:53.432Z,1.58
2022-08-01T20:33:56.462Z,1.90
2022-08-01T20:38:59.077Z,1.98
2022-08-01T20:44:00.817Z,1.73
2022-08-01T20:49:05.257Z,1.70
2022-08-01T20:54:10.804Z,2.20
2022-08-01T20:59:40.150Z,1.90
2022-08-01T21:04:55.042Z,2.03
2022-08-01T21:10:07.964Z,1.83
2022-08-01T21:15:15.371Z,1.80
2022-08-01T21:20:22.478Z,2.88
2022-08-01T21:25:35.708Z,1.90
2022-08-01T21:30:40.856Z,1.45
2022-08-01T21:35:52.233Z,2.72
2022-08-01T21:40:58.421Z,2.42
2022-08-01T21:46:04.299Z,3.20
2022-08-01T21:51:16.968Z,2.33
2022-08-01T21:57:02.013Z,2.60
2022-08-01T22:02:30.918Z,2.75
2022-08-01T22:07:42.304Z,2.53
2022-08-01T22:12:45.196Z,1.88
2022-08-01T22:17:52.561Z,2.50
2022-08-01T22:22:59.123Z,2.45
2022-08-01T22:28:09.407Z,2.13
2022-08-01T22:33:17.269Z,2.10
2022-08-01T22:38:24.110Z,2.47
2022-08-01T22:43:53.814Z,2.67
2022-08-01T22:49:08.985Z,2.05
2022-08-01T22:54:13.488Z,2.53
2022-08-01T22:59:41.812Z,2.13
2022-08-01T23:04:49.257Z,2.17
2022-08-01T23:09:57.343Z,2.55
2022-08-01T23:15:02.392Z,2.50
2022-08-01T23:20:11.248Z,2.80
2022-08-01T23:25:20.954Z,2.92
2022-08-01T23:30:28.016Z,2.67
2022-08-01T23:35:35.581Z,2.55
2022-08-01T23:40:43.516Z,2.58
2022-08-01T23:46:04.098Z,2.72
2022-08-01T23:51:07.180Z,2.35
2022-08-01T23:56:09.157Z,2.60
